createdAt,value
2023-01-15T00:02:10.088Z,59.92
2023-01-15T00:04:55.825Z,59.80
2023-01-15T00:07:41.459Z,59.75
2023-01-15T00:10:27.298Z,59.39
2023-01-15T00:13:12.902Z,59.83
2023-01-15T00:16:16.085Z,60.07
2023-01-15T00:19:04.395Z,59.94
2023-01-15T00:21:50.392Z,59.80
2023-01-15T00:24:54.584Z,59.74
2023-01-15T00:27:44.167Z,59.79
2023-01-15T00:30:29.978Z,60.13
2023-01-15T00:33:15.537Z,60.13
2023-01-15T00:36:01.148Z,60.20
2023-01-15T00:38:46.882Z,60.15
2023-01-15T00:41:32.975Z,59.93
2023-01-15T00:44:20.119Z,59.99
2023-01-15T00:47:07.037Z,60.29
2023-01-15T00:49:54.355Z,59.95
2023-01-15T00:52:40.748Z,60.18
2023-01-15T00:55:26.845Z,59.88
2023-01-15T00:58:13.089Z,59.87
2023-01-15T01:01:00.905Z,60.08
2023-01-15T01:03:49.089Z,60.31
2023-01-15T01:06:34.886Z,60.02
2023-01-15T01:10:32.522Z,60.45
2023-01-15T01:13:29.719Z,60.33
2023-01-15T01:16:37.494Z,60.22
2023-01-15T01:19:24.580Z,60.07
2023-01-15T01:22:22.719Z,59.81
2023-01-15T01:25:09.153Z,60.09
2023-01-15T01:27:56.049Z,59.91
2023-01-15T01:30:48.778Z,59.74
2023-01-15T01:33:34.809Z,60.30
2023-01-15T01:36:21.806Z,60.32
2023-01-15T01:39:08.645Z,60.30
2023-01-15T01:41:54.654Z,60.22
2023-01-15T01:44:45.041Z,60.10
2023-01-15T01:47:31.795Z,59.96
2023-01-15T01:50:17.582Z,59.96
2023-01-15T01:53:09.960Z,60.51
2023-01-15T01:56:00.369Z,60.26
2023-01-15T01:58:49.813Z,60.30
2023-01-15T02:01:36.244Z,60.26
2023-01-15T02:04:22.944Z,60.18
2023-01-15T02:07:08.930Z,60.15
2023-01-15T02:09:56.743Z,60.28
2023-01-15T02:12:43.051Z,60.20
2023-01-15T02:15:53.416Z,60.47
2023-01-15T02:18:45.065Z,60.11
2023-01-15T02:21:37.806Z,60.65
2023-01-15T02:24:50.339Z,60.29
2023-01-15T02:27:38.778Z,60.28
2023-01-15T02:30:43.012Z,60.59
2023-01-15T02:33:37.019Z,60.17
2023-01-15T02:36:27.150Z,60.44
2023-01-15T02:39:15.582Z,60.54
2023-01-15T02:42:03.361Z,60.00
2023-01-15T02:44:57.040Z,60.68
2023-01-15T02:47:44.747Z,60.47
2023-01-15T02:50:35.677Z,60.12
2023-01-15T02:53:27.628Z,60.58
2023-01-15T02:56:19.693Z,60.58
2023-01-15T02:59:13.672Z,60.77
2023-01-15T03:02:08.763Z,60.14
2023-01-15T03:05:01.670Z,60.65
2023-01-15T03:08:08.832Z,60.43
2023-01-15T03:11:24.606Z,60.67
2023-01-15T03:14:28.255Z,60.41
2023-01-15T03:17:28.647Z,60.29
2023-01-15T03:20:23.906Z,60.54
2023-01-15T03:23:12.342Z,60.37
2023-01-15T03:25:58.610Z,60.76
2023-01-15T03:28:45.993Z,60.72
2023-01-15T03:31:34.437Z,60.44
2023-01-15T03:34:20.490Z,60.44
2023-01-15T03:37:13.544Z,61.13
2023-01-15T03:40:17.394Z,60.78
2023-01-15T03:46:53.329Z,60.62
2023-01-15T03:49:47.983Z,60.55
2023-01-15T03:53:06.805Z,60.59
2023-01-15T03:56:23.399Z,60.96
2023-01-15T03:59:23.024Z,60.83
2023-01-15T04:02:17.167Z,60.58
2023-01-15T04:05:03.988Z,60.50
2023-01-15T04:07:51.601Z,60.69
2023-01-15T04:11:41.558Z,60.89
2023-01-15T04:14:30.252Z,60.92
2023-01-15T04:17:17.123Z,60.88
2023-01-15T04:20:02.859Z,61.06
2023-01-15T04:22:49.015Z,61.05
2023-01-15T04:25:34.854Z,60.97
2023-01-15T04:28:20.441Z,61.17
2023-01-15T04:31:06.568Z,61.04
2023-01-15T04:33:52.512Z,60.77
2023-01-15T04:36:40.397Z,61.04
2023-01-15T04:39:26.209Z,61.05
2023-01-15T04:45:44.251Z,61.14
2023-01-15T04:48:34.071Z,61.31
2023-01-15T04:51:19.785Z,61.45
2023-01-15T04:54:07.753Z,61.24
2023-01-15T04:56:57.820Z,61.12
2023-01-15T04:59:43.597Z,61.07
2023-01-15T05:02:34.325Z,61.27
2023-01-15T05:05:24.037Z,61.45
2023-01-15T05:08:19.379Z,61.17
2023-01-15T05:11:07.120Z,61.57
2023-01-15T05:13:53.146Z,61.48
2023-01-15T05:16:39.082Z,61.38
2023-01-15T05:19:58.883Z,61.75
2023-01-15T05:22:44.571Z,61.72
2023-01-15T05:25:30.190Z,61.75
2023-01-15T05:28:15.729Z,61.97
2023-01-15T05:31:26.996Z,61.86
2023-01-15T05:34:13.354Z,61.59
2023-01-15T05:36:59.327Z,61.34
2023-01-15T05:39:44.885Z,61.77
2023-01-15T05:42:30.567Z,61.74
2023-01-15T05:45:16.349Z,61.44
2023-01-15T05:48:02.049Z,61.73
2023-01-15T05:50:47.708Z,61.84
2023-01-15T05:53:35.017Z,61.42
2023-01-15T05:56:20.744Z,61.61
2023-01-15T05:59:07.475Z,61.39
2023-01-15T06:02:32.835Z,61.89
2023-01-15T06:05:20.388Z,61.64
2023-01-15T06:08:08.049Z,61.53
2023-01-15T06:10:53.869Z,61.86
2023-01-15T06:13:40.041Z,61.93
2023-01-15T06:16:26.335Z,61.79
2023-01-15T06:19:13.857Z,61.93
2023-01-15T06:22:03.916Z,61.65
2023-01-15T06:24:49.865Z,61.58
2023-01-15T06:27:49.296Z,61.65
2023-01-15T06:30:36.570Z,61.39
2023-01-15T06:33:23.959Z,61.45
2023-01-15T06:36:21.794Z,61.64
2023-01-15T06:39:07.516Z,61.66
2023-01-15T06:46:34.378Z,61.48
2023-01-15T06:49:24.155Z,61.54
2023-01-15T06:52:09.900Z,61.73
2023-01-15T06:54:55.763Z,61.87
2023-01-15T06:57:42.192Z,61.67
2023-01-15T07:00:28.116Z,61.54
2023-01-15T07:03:14.499Z,61.68
2023-01-15T07:06:00.163Z,61.60
2023-01-15T07:09:25.877Z,61.91
2023-01-15T07:12:11.854Z,61.68
2023-01-15T07:14:57.586Z,61.91
2023-01-15T07:17:43.459Z,61.76
2023-01-15T07:20:29.314Z,61.72
2023-01-15T07:23:16.749Z,61.95
2023-01-15T07:26:03.031Z,61.76
2023-01-15T07:28:48.728Z,61.88
2023-01-15T07:31:34.693Z,61.62
2023-01-15T07:34:20.449Z,61.85
2023-01-15T07:37:06.098Z,61.85
2023-01-15T07:39:51.971Z,61.93
2023-01-15T07:43:11.850Z,62.23
2023-01-15T07:46:22.650Z,61.92
2023-01-15T07:52:39.174Z,61.76
2023-01-15T07:55:25.297Z,61.52
2023-01-15T07:58:11.307Z,61.61
2023-01-15T08:00:57.030Z,62.13
2023-01-15T08:03:42.934Z,61.96
2023-01-15T08:06:28.646Z,61.78
2023-01-15T08:09:14.460Z,61.95
2023-01-15T08:12:19.903Z,62.27
2023-01-15T08:15:16.830Z,62.14
2023-01-15T08:18:02.556Z,62.18
2023-01-15T08:20:48.288Z,61.93
2023-01-15T08:23:34.132Z,61.74
2023-01-15T08:26:19.879Z,61.73
2023-01-15T08:29:05.592Z,61.80
2023-01-15T08:31:51.139Z,61.71
2023-01-15T08:34:36.863Z,61.44
2023-01-15T08:37:25.259Z,61.93
2023-01-15T08:40:12.080Z,61.56
2023-01-15T08:42:57.762Z,61.83
2023-01-15T08:45:43.517Z,61.53
2023-01-15T08:48:30.705Z,60.91
2023-01-15T08:51:16.516Z,60.81
2023-01-15T08:54:02.327Z,60.48
2023-01-15T08:56:48.425Z,60.19
2023-01-15T08:59:34.113Z,60.62
2023-01-15T09:02:19.911Z,60.45
2023-01-15T09:05:06.150Z,60.92
2023-01-15T09:07:52.249Z,60.81
2023-01-15T09:10:38.023Z,60.16
2023-01-15T09:13:23.757Z,60.17
2023-01-15T09:16:10.232Z,60.59
2023-01-15T09:18:56.444Z,60.72
2023-01-15T09:21:42.656Z,59.92
2023-01-15T09:24:28.350Z,60.33
2023-01-15T09:27:14.230Z,60.30
2023-01-15T09:30:00.223Z,60.40
2023-01-15T09:32:45.749Z,60.06
2023-01-15T09:35:31.350Z,60.44
2023-01-15T09:38:19.029Z,60.05
2023-01-15T09:41:30.529Z,59.28
2023-01-15T09:44:29.169Z,59.50
2023-01-15T09:47:21.198Z,60.15
2023-01-15T09:50:31.826Z,60.07
2023-01-15T09:53:37.083Z,59.87
2023-01-15T09:56:28.032Z,59.40
2023-01-15T09:59:34.731Z,58.86
2023-01-15T10:02:31.360Z,58.99
2023-01-15T10:05:20.462Z,59.28
2023-01-15T10:08:12.420Z,58.82
2023-01-15T10:11:18.801Z,58.26
2023-01-15T10:14:10.309Z,58.99
2023-01-15T10:16:55.984Z,59.34
2023-01-15T10:19:44.870Z,59.10
2023-01-15T10:23:21.712Z,58.21
2023-01-15T10:26:18.864Z,58.60
2023-01-15T10:30:03.314Z,58.39
2023-01-15T10:33:02.517Z,58.63
2023-01-15T10:35:55.958Z,59.03
2023-01-15T10:38:56.419Z,59.30
2023-01-15T10:42:06.742Z,59.18
2023-01-15T10:45:10.529Z,58.24
2023-01-15T10:48:05.049Z,58.74
2023-01-15T10:50:51.297Z,58.69
2023-01-15T10:53:53.924Z,58.32
2023-01-15T10:57:08.375Z,58.40
2023-01-15T10:59:57.917Z,58.36
2023-01-15T11:02:46.123Z,58.63
2023-01-15T11:05:32.653Z,57.73
2023-01-15T11:12:07.846Z,57.39
2023-01-15T11:15:12.374Z,57.80
2023-01-15T11:18:17.019Z,57.56
2023-01-15T11:21:03.391Z,57.50
2023-01-15T11:23:50.061Z,57.57
2023-01-15T11:26:35.726Z,57.49
2023-01-15T11:29:34.732Z,57.20
2023-01-15T11:32:38.101Z,57.07
2023-01-15T11:35:24.639Z,56.64
2023-01-15T11:38:14.999Z,56.89
2023-01-15T11:41:02.503Z,56.14
2023-01-15T11:44:17.414Z,56.41
2023-01-15T11:47:23.133Z,56.70
2023-01-15T11:50:37.210Z,56.23
2023-01-15T11:53:28.119Z,55.63
2023-01-15T11:56:16.744Z,55.32
2023-01-15T11:59:04.676Z,54.99
2023-01-15T12:01:57.863Z,55.12
2023-01-15T12:04:54.889Z,54.87
2023-01-15T12:07:41.207Z,54.65
2023-01-15T12:11:25.089Z,54.26
2023-01-15T12:14:31.525Z,54.84
2023-01-15T12:17:20.856Z,54.96
2023-01-15T12:20:24.999Z,54.83
2023-01-15T12:23:25.361Z,54.51
2023-01-15T12:26:17.869Z,54.22
2023-01-15T12:29:20.083Z,53.12
2023-01-15T12:32:10.534Z,54.00
2023-01-15T12:35:01.560Z,53.74
2023-01-15T12:37:57.073Z,53.31
2023-01-15T12:40:51.551Z,52.95
2023-01-15T12:43:55.726Z,53.20
2023-01-15T12:46:44.405Z,53.03
2023-01-15T12:49:42.489Z,52.73
2023-01-15T12:52:34.620Z,52.91
2023-01-15T12:55:27.232Z,52.79
2023-01-15T12:58:20.782Z,52.62
2023-01-15T13:01:31.528Z,51.64
2023-01-15T13:04:18.891Z,52.42
2023-01-15T13:07:17.618Z,52.31
2023-01-15T13:10:07.890Z,52.39
2023-01-15T13:12:54.692Z,52.27
2023-01-15T13:15:47.555Z,52.50
2023-01-15T13:19:08.905Z,52.20
2023-01-15T13:21:58.253Z,52.07
2023-01-15T13:25:25.472Z,50.67
2023-01-15T13:28:52.221Z,51.45
2023-01-15T13:32:00.004Z,51.72
2023-01-15T13:34:55.191Z,52.41
2023-01-15T13:37:50.046Z,52.31
2023-01-15T13:40:44.356Z,52.22
2023-01-15T13:43:33.148Z,52.12
2023-01-15T13:46:21.065Z,51.83
2023-01-15T13:49:20.872Z,51.54
2023-01-15T13:52:08.828Z,51.43
2023-01-15T13:54:58.802Z,51.18
2023-01-15T13:57:44.944Z,51.36
2023-01-15T14:00:40.178Z,51.26
2023-01-15T14:03:35.040Z,51.00
2023-01-15T14:06:20.896Z,50.94
2023-01-15T14:09:10.140Z,51.01
2023-01-15T14:12:12.047Z,50.53
2023-01-15T14:15:09.243Z,50.30
2023-01-15T14:18:23.925Z,49.87
2023-01-15T14:21:34.414Z,49.43
2023-01-15T14:24:42.133Z,50.48
2023-01-15T14:27:49.639Z,50.42
2023-01-15T14:30:45.878Z,50.67
2023-01-15T14:33:50.093Z,50.02
2023-01-15T14:36:50.061Z,50.97
2023-01-15T14:39:52.153Z,50.92
2023-01-15T14:42:58.270Z,51.07
2023-01-15T14:45:46.758Z,51.09
2023-01-15T14:48:32.489Z,51.47
2023-01-15T14:51:27.037Z,51.38
2023-01-15T14:54:16.252Z,51.14
2023-01-15T14:57:02.572Z,51.41
2023-01-15T14:59:58.601Z,50.96
2023-01-15T15:02:45.125Z,51.38
2023-01-15T15:05:32.129Z,51.34
2023-01-15T15:08:19.491Z,51.44
2023-01-15T15:11:26.632Z,51.45
2023-01-15T15:14:14.952Z,51.58
2023-01-15T15:17:01.980Z,51.89
2023-01-15T15:19:53.656Z,51.94
2023-01-15T15:22:39.814Z,51.90
2023-01-15T15:25:27.748Z,51.96
2023-01-15T15:28:13.395Z,51.51
2023-01-15T15:31:03.004Z,51.74
2023-01-15T15:33:49.017Z,51.89
2023-01-15T15:36:39.344Z,51.57
2023-01-15T15:39:42.669Z,52.21
2023-01-15T15:43:13.057Z,51.71
2023-01-15T15:46:17.634Z,52.33
2023-01-15T15:49:08.049Z,51.81
2023-01-15T15:51:54.629Z,52.28
2023-01-15T15:54:40.453Z,52.20
2023-01-15T15:57:28.318Z,52.15
2023-01-15T16:00:20.024Z,51.79
2023-01-15T16:03:08.453Z,52.26
2023-01-15T16:06:06.289Z,52.74
2023-01-15T16:09:04.795Z,52.27
2023-01-15T16:11:52.745Z,52.67
2023-01-15T16:14:38.708Z,52.44
2023-01-15T16:17:27.072Z,52.03
2023-01-15T16:20:15.114Z,52.56
2023-01-15T16:23:02.705Z,52.28
2023-01-15T16:26:53.096Z,52.50
2023-01-15T16:31:06.251Z,52.48
2023-01-15T16:33:56.848Z,52.50
2023-01-15T16:36:45.432Z,52.49
2023-01-15T16:40:21.644Z,52.96
2023-01-15T16:44:17.044Z,52.20
2023-01-15T16:52:00.859Z,52.89
2023-01-15T16:54:53.609Z,53.18
2023-01-15T16:57:39.401Z,52.76
2023-01-15T17:00:30.912Z,52.82
2023-01-15T17:03:21.261Z,52.78
2023-01-15T17:06:12.733Z,52.62
2023-01-15T17:08:59.269Z,52.61
2023-01-15T17:11:50.323Z,52.50
2023-01-15T17:14:36.026Z,53.17
2023-01-15T17:17:21.668Z,53.33
2023-01-15T17:20:09.637Z,53.68
2023-01-15T17:22:56.541Z,53.59
2023-01-15T17:25:42.429Z,53.39
2023-01-15T17:28:28.557Z,53.57
2023-01-15T17:31:26.927Z,53.54
2023-01-15T17:34:13.133Z,53.57
2023-01-15T17:36:59.199Z,53.70
2023-01-15T17:39:45.189Z,54.04
2023-01-15T17:42:31.127Z,53.96
2023-01-15T17:45:24.189Z,53.78
2023-01-15T17:48:10.683Z,54.16
2023-01-15T17:50:59.109Z,53.54
2023-01-15T17:53:44.849Z,53.72
2023-01-15T17:56:49.181Z,53.71
2023-01-15T17:59:53.689Z,53.67
2023-01-15T18:02:59.989Z,54.19
2023-01-15T18:05:48.026Z,53.97
2023-01-15T18:08:34.736Z,54.26
2023-01-15T18:11:20.517Z,54.01
2023-01-15T18:14:06.319Z,53.96
2023-01-15T18:16:52.094Z,54.18
2023-01-15T18:19:38.040Z,54.05
2023-01-15T18:22:24.032Z,54.00
2023-01-15T18:25:11.291Z,53.99
2023-01-15T18:27:57.162Z,54.36
2023-01-15T18:30:43.101Z,54.30
2023-01-15T18:33:29.264Z,54.38
2023-01-15T18:36:15.299Z,54.28
2023-01-15T18:39:06.783Z,54.68
2023-01-15T18:41:52.517Z,54.49
2023-01-15T18:44:56.796Z,54.66
2023-01-15T18:47:43.105Z,54.29
2023-01-15T18:50:29.609Z,54.62
2023-01-15T18:53:15.811Z,54.80
2023-01-15T18:56:05.890Z,54.94
2023-01-15T18:58:51.693Z,54.81
2023-01-15T19:01:38.552Z,54.84
2023-01-15T19:04:25.228Z,54.75
2023-01-15T19:07:11.595Z,55.05
2023-01-15T19:09:57.322Z,54.88
2023-01-15T19:12:44.601Z,54.84
2023-01-15T19:15:49.027Z,55.13
2023-01-15T19:18:52.533Z,54.96
2023-01-15T19:21:38.641Z,54.99
2023-01-15T19:24:24.309Z,55.21
2023-01-15T19:27:09.987Z,54.98
2023-01-15T19:29:55.589Z,55.03
2023-01-15T19:32:41.909Z,55.04
2023-01-15T19:35:27.925Z,55.10
2023-01-15T19:38:15.079Z,55.26
2023-01-15T19:41:21.004Z,55.37
2023-01-15T19:44:27.614Z,55.32
2023-01-15T19:47:38.672Z,55.31
2023-01-15T19:50:35.342Z,55.37
2023-01-15T19:53:21.394Z,55.78
2023-01-15T19:56:08.393Z,55.42
2023-01-15T19:58:54.182Z,55.55
2023-01-15T20:01:40.430Z,55.43
2023-01-15T20:04:26.822Z,55.78
2023-01-15T20:07:12.580Z,55.72
2023-01-15T20:09:58.572Z,55.89
2023-01-15T20:13:03.091Z,55.76
2023-01-15T20:15:49.055Z,55.90
2023-01-15T20:18:35.185Z,55.72
2023-01-15T20:21:21.503Z,55.53
2023-01-15T20:24:07.276Z,55.45
2023-01-15T20:26:52.974Z,55.62
2023-01-15T20:29:41.287Z,55.42
2023-01-15T20:32:27.309Z,55.74
2023-01-15T20:35:17.466Z,55.56
2023-01-15T20:38:03.627Z,55.67
2023-01-15T20:40:52.136Z,55.55
2023-01-15T20:43:57.561Z,55.86
2023-01-15T20:46:43.501Z,55.62
2023-01-15T20:49:30.159Z,55.67
2023-01-15T20:52:16.328Z,55.53
2023-01-15T20:55:02.951Z,55.87
2023-01-15T20:57:48.835Z,56.01
2023-01-15T21:00:35.411Z,55.77
2023-01-15T21:03:21.038Z,55.90
2023-01-15T21:06:08.342Z,55.60
2023-01-15T21:08:58.235Z,56.09
2023-01-15T21:11:45.193Z,56.04
2023-01-15T21:14:31.085Z,55.86
2023-01-15T21:17:16.858Z,55.99
2023-01-15T21:20:02.868Z,56.00
2023-01-15T21:22:48.605Z,56.29
2023-01-15T21:25:34.321Z,56.08
2023-01-15T21:28:19.914Z,55.76
2023-01-15T21:31:09.619Z,56.14
2023-01-15T21:33:55.982Z,56.09
2023-01-15T21:36:41.877Z,55.93
2023-01-15T21:39:28.115Z,56.33
2023-01-15T21:42:54.218Z,56.51
2023-01-15T21:45:40.089Z,56.11
2023-01-15T21:48:26.072Z,56.52
2023-01-15T21:51:11.876Z,56.44
2023-01-15T21:54:00.084Z,56.19
2023-01-15T21:56:46.474Z,56.15
2023-01-15T21:59:32.411Z,56.09
2023-01-15T22:02:21.847Z,56.37
2023-01-15T22:05:08.649Z,56.22
2023-01-15T22:07:54.732Z,56.22
2023-01-15T22:10:40.727Z,56.40
2023-01-15T22:13:26.407Z,56.30
2023-01-15T22:16:12.305Z,56.64
2023-01-15T22:18:58.219Z,56.71
2023-01-15T22:21:43.908Z,56.30
2023-01-15T22:24:31.950Z,56.74
2023-01-15T22:27:20.145Z,56.42
2023-01-15T22:30:08.209Z,56.64
2023-01-15T22:32:54.241Z,56.51
2023-01-15T22:35:40.169Z,56.48
2023-01-15T22:38:26.261Z,56.78
2023-01-15T22:41:12.514Z,56.50
2023-01-15T22:43:58.728Z,56.80
2023-01-15T22:46:45.169Z,56.87
2023-01-15T22:49:31.268Z,56.70
2023-01-15T22:52:17.320Z,57.03
2023-01-15T22:55:03.244Z,56.91
2023-01-15T22:57:49.207Z,56.73
2023-01-15T23:00:35.326Z,56.87
2023-01-15T23:03:21.319Z,56.61
2023-01-15T23:06:09.736Z,56.97
2023-01-15T23:08:57.525Z,57.07
2023-01-15T23:11:43.830Z,57.03
2023-01-15T23:14:29.830Z,56.61
2023-01-15T23:17:16.022Z,56.72
2023-01-15T23:20:01.973Z,56.52
2023-01-15T23:22:48.033Z,57.22
2023-01-15T23:25:33.830Z,57.12
2023-01-15T23:28:19.690Z,57.01
2023-01-15T23:31:05.286Z,57.26
2023-01-15T23:33:51.147Z,57.30
2023-01-15T23:36:37.060Z,56.91
2023-01-15T23:39:22.763Z,56.86
2023-01-15T23:42:29.392Z,57.15
2023-01-15T23:45:34.143Z,57.15
2023-01-15T23:48:20.677Z,56.80
2023-01-15T23:51:06.747Z,57.24
2023-01-15T23:53:52.729Z,56.75
2023-01-15T23:56:38.794Z,56.87
2023-01-15T23:59:24.789Z,56.68
